Terminal Aerodrome Forecast
Issued by NWS Twin Cities, MN

Home | Current Version | Previous Version | Text Only | Print | Product List | Glossary On
Versions: 1 2 3 4 5 6 7 8 9 10 11 12 13 14 15 16 17 18 19 20 21 22
000
FTUS43 KMPX 232325
TAFSTC
TAF
KSTC 232325Z 2400/2424 15012KT P6SM BKN050
     FM240400 19009KT P6SM VCTS SCT050CB BKN100
     FM240800 27007KT P6SM SKC
     FM241500 30014G22KT P6SM FEW050 SCT250=

USA.gov is the U.S. government's official web portal to all federal, state and local government web resources and services.